Time;durP1;ratioP1;P1;durP2;ratioP2;P2;SDS_P1;SDS_P2;PMS_P1;PMS_P2;Temp;Humidity;BMP_temperature;BMP_pressure;BME280_temperature;BME280_humidity;BME280_pressure;Samples;Min_cycle;Max_cycle;Signal;HPM_P1;HPM_P2
2023/09/20 00:01:53;;;;;;;8.82;2.80;;;;;;;11.53;100.00;100404.25;4951923;28;20411;-70
2023/09/20 00:04:20;;;;;;;12.98;3.08;;;;;;;11.57;100.00;100390.28;4951459;28;20051;-70
2023/09/20 00:06:47;;;;;;;13.70;2.80;;;;;;;11.48;100.00;100387.81;4952640;28;20042;-69
2023/09/20 00:09:15;;;;;;;11.93;3.10;;;;;;;11.48;100.00;100393.19;4952718;29;20431;-70
2023/09/20 00:11:44;;;;;;;14.82;3.30;;;;;;;11.49;100.00;100392.19;4952261;29;20407;-69
2023/09/20 00:14:11;;;;;;;12.20;2.50;;;;;;;11.35;100.00;100391.91;4951654;28;20074;-70
2023/09/20 00:16:39;;;;;;;9.57;2.63;;;;;;;11.33;100.00;100399.28;4952986;29;20163;-69
2023/09/20 00:19:06;;;;;;;9.73;2.50;;;;;;;11.37;100.00;100395.25;4952872;29;20051;-71
2023/09/20 00:21:32;;;;;;;7.65;2.70;;;;;;;11.33;100.00;100393.91;4942139;29;20056;-71
2023/09/20 00:23:59;;;;;;;10.35;2.60;;;;;;;11.34;100.00;100394.75;4913490;29;20052;-67
2023/09/20 00:26:27;;;;;;;7.88;2.70;;;;;;;11.35;100.00;100386.53;4915819;29;20449;-67
2023/09/20 00:28:53;;;;;;;9.93;3.00;;;;;;;11.29;100.00;100389.91;4914690;29;20126;-70
2023/09/20 00:31:20;;;;;;;16.42;3.30;;;;;;;11.31;100.00;100395.09;4914309;29;20052;-70
2023/09/20 00:33:47;;;;;;;9.82;2.78;;;;;;;11.28;100.00;100388.25;4914548;29;20058;-70
2023/09/20 00:36:19;;;;;;;13.57;3.10;;;;;;;11.23;100.00;100402.16;4912995;29;20056;-70
2023/09/20 00:38:47;;;;;;;6.03;2.53;;;;;;;11.25;100.00;100396.63;4914581;29;20048;-71
2023/09/20 00:41:15;;;;;;;8.02;2.97;;;;;;;11.22;100.00;100395.13;4914568;29;20072;-71
2023/09/20 00:43:42;;;;;;;9.18;2.55;;;;;;;11.19;100.00;100391.94;4914049;29;20438;-72
2023/09/20 00:46:09;;;;;;;9.18;2.58;;;;;;;11.31;100.00;100392.41;4897165;29;20107;-70
2023/09/20 00:48:38;;;;;;;9.48;3.33;;;;;;;11.21;100.00;100389.94;4913979;29;20056;-70
2023/09/20 00:51:06;;;;;;;15.02;3.28;;;;;;;11.18;100.00;100391.13;4913779;29;20473;-71
2023/09/20 00:53:35;;;;;;;11.40;2.85;;;;;;;11.18;100.00;100385.75;4913049;29;20056;-69
2023/09/20 00:56:04;;;;;;;12.45;3.30;;;;;;;11.18;100.00;100391.13;4913894;29;20056;-69
2023/09/20 00:58:34;;;;;;;8.38;2.83;;;;;;;11.13;100.00;100393.47;4914021;29;20052;-70
2023/09/20 01:01:03;;;;;;;10.80;2.67;;;;;;;11.03;100.00;100397.34;4913838;29;20076;-70
2023/09/20 01:03:35;;;;;;;10.75;2.47;;;;;;;11.04;100.00;100399.06;4913583;29;20141;-70
2023/09/20 01:09:55;;;;;;;7.63;2.58;;;;;;;10.95;100.00;100403.59;4893083;29;20139;-69
2023/09/20 01:12:21;;;;;;;12.13;2.92;;;;;;;10.93;100.00;100401.09;4893563;29;20060;-71
2023/09/20 01:14:49;;;;;;;6.15;2.70;;;;;;;10.93;100.00;100408.31;4892460;29;20048;-70
2023/09/20 01:17:17;;;;;;;8.57;2.80;;;;;;;10.89;100.00;100412.31;4893792;29;20052;-72
2023/09/20 01:19:44;;;;;;;7.93;2.50;;;;;;;10.92;100.00;100407.44;4931189;29;20048;-69
2023/09/20 01:22:13;;;;;;;17.77;3.10;;;;;;;10.87;100.00;100412.50;4930698;29;20487;-69
2023/09/20 01:24:39;;;;;;;10.15;3.30;;;;;;;10.91;100.00;100408.44;4914012;29;20055;-69
2023/09/20 01:27:06;;;;;;;10.25;3.47;;;;;;;10.91;100.00;100403.09;4935264;29;20453;-70
2023/09/20 01:29:34;;;;;;;8.60;2.72;;;;;;;10.85;100.00;100406.44;4933090;29;20048;-69
2023/09/20 01:32:02;;;;;;;12.65;2.95;;;;;;;10.82;100.00;100401.41;4934727;29;20065;-70
2023/09/20 01:34:31;;;;;;;13.43;3.03;;;;;;;10.79;100.00;100403.59;4935410;29;20054;-70
2023/09/20 01:36:58;;;;;;;14.27;2.60;;;;;;;10.77;100.00;100398.41;4934335;29;20103;-70
2023/09/20 01:39:25;;;;;;;11.27;2.80;;;;;;;10.73;100.00;100400.59;4935135;29;20059;-70
2023/09/20 01:41:51;;;;;;;10.98;2.47;;;;;;;10.76;100.00;100391.38;4934813;29;20089;-70
2023/09/20 01:44:18;;;;;;;9.88;2.60;;;;;;;10.70;100.00;100390.19;4916820;29;20515;-71
2023/09/20 01:46:45;;;;;;;9.80;2.72;;;;;;;10.71;100.00;100393.72;4935059;29;20058;-70
2023/09/20 01:49:12;;;;;;;9.75;2.80;;;;;;;10.76;100.00;100388.69;4934744;29;20785;-70
2023/09/20 01:51:39;;;;;;;8.60;2.72;;;;;;;10.68;100.00;100386.00;4934145;29;20492;-69
2023/09/20 01:54:06;;;;;;;8.00;2.88;;;;;;;10.62;100.00;100384.03;4935105;29;20044;-70
2023/09/20 01:56:33;;;;;;;10.68;2.63;;;;;;;10.68;100.00;100384.16;4934494;29;20457;-71
2023/09/20 01:59:00;;;;;;;10.68;2.40;;;;;;;10.66;100.00;100382.66;4934609;29;20044;-70
2023/09/20 02:01:26;;;;;;;8.65;2.47;;;;;;;10.65;100.00;100389.88;4933853;29;20051;-70
2023/09/20 02:03:55;;;;;;;4.85;2.35;;;;;;;10.64;100.00;100382.81;4934236;29;20051;-70
2023/09/20 02:06:23;;;;;;;9.35;2.90;;;;;;;10.64;100.00;100384.66;4933568;29;20090;-71
2023/09/20 02:08:49;;;;;;;10.68;2.88;;;;;;;10.66;100.00;100385.34;4945234;29;20054;-70
2023/09/20 02:11:16;;;;;;;13.07;2.60;;;;;;;10.68;100.00;100389.53;4952534;29;20054;-70
2023/09/20 02:13:42;;;;;;;6.95;2.28;;;;;;;10.66;100.00;100382.66;4953310;28;20131;-70
2023/09/20 02:16:10;;;;;;;6.78;2.50;;;;;;;10.61;100.00;100382.31;4952463;28;20527;-69
2023/09/20 02:18:38;;;;;;;9.68;2.80;;;;;;;10.71;100.00;100388.34;4943750;28;20157;-70
2023/09/20 02:21:06;;;;;;;9.40;2.80;;;;;;;10.65;100.00;100383.66;4933372;29;20043;-71
2023/09/20 02:23:33;;;;;;;10.13;2.63;;;;;;;10.69;100.00;100390.38;4933906;29;20115;-70
2023/09/20 02:26:00;;;;;;;6.50;2.42;;;;;;;10.70;100.00;100386.69;4922124;29;20051;-70
2023/09/20 02:28:28;;;;;;;7.75;2.53;;;;;;;10.70;100.00;100381.31;4915124;29;20056;-70
2023/09/20 02:30:55;;;;;;;6.78;2.83;;;;;;;10.70;100.00;100374.09;4914332;29;20052;-69
2023/09/20 02:33:22;;;;;;;12.98;2.65;;;;;;;10.63;100.00;100381.16;4914680;29;20052;-70
2023/09/20 02:35:49;;;;;;;12.15;3.10;;;;;;;10.64;100.00;100371.25;4914747;29;20135;-70
2023/09/20 02:38:15;;;;;;;7.32;2.63;;;;;;;10.68;100.00;100377.94;4913414;29;20052;-71
2023/09/20 02:40:46;;;;;;;12.43;2.88;;;;;;;10.74;100.00;100367.38;4915554;29;20123;-69
2023/09/20 02:43:13;;;;;;;5.75;2.40;;;;;;;10.69;100.00;100374.28;4913890;29;20413;-70
2023/09/20 02:45:45;;;;;;;8.13;2.55;;;;;;;10.73;100.00;100364.88;4914123;29;20048;-70
2023/09/20 02:48:12;;;;;;;9.25;1.98;;;;;;;10.80;100.00;100373.09;4913295;29;20099;-69
2023/09/20 02:50:41;;;;;;;11.38;2.85;;;;;;;10.77;100.00;100376.13;4913978;29;20446;-71
2023/09/20 02:53:09;;;;;;;7.65;2.55;;;;;;;10.86;100.00;100372.38;4915651;29;20120;-71
2023/09/20 02:55:39;;;;;;;6.80;2.50;;;;;;;10.90;100.00;100369.22;4947233;28;20051;-69
2023/09/20 02:58:07;;;;;;;13.25;2.85;;;;;;;10.87;100.00;100372.22;4953323;28;20062;-69
2023/09/20 03:00:34;;;;;;;6.30;2.50;;;;;;;10.81;100.00;100362.19;4935596;29;20043;-69
2023/09/20 03:03:02;;;;;;;8.80;2.38;;;;;;;10.86;100.00;100365.19;4952906;28;20393;-70
2023/09/20 03:05:31;;;;;;;6.53;2.42;;;;;;;10.87;100.00;100361.50;4951900;29;20126;-70
2023/09/20 03:07:58;;;;;;;8.35;2.63;;;;;;;10.90;100.00;100357.66;4951590;29;20478;-70
2023/09/20 03:10:28;;;;;;;13.38;2.47;;;;;;;10.91;100.00;100353.94;4952334;29;20098;-70
2023/09/20 03:12:57;;;;;;;9.43;2.42;;;;;;;10.83;100.00;100352.13;4951369;28;20054;-70
2023/09/20 03:15:26;;;;;;;9.40;3.00;;;;;;;10.79;100.00;100355.28;4952341;28;20075;-70
2023/09/20 03:18:02;;;;;;;15.25;2.92;;;;;;;10.80;100.00;100340.91;4951986;29;20058;-69
2023/09/20 03:20:32;;;;;;;8.68;2.40;;;;;;;10.79;100.00;100356.16;4951945;29;20492;-69
2023/09/20 03:23:02;;;;;;;13.43;2.72;;;;;;;10.78;100.00;100356.31;4952283;28;20043;-68
2023/09/20 03:25:35;;;;;;;11.50;3.10;;;;;;;10.81;100.00;100351.44;4952001;29;20411;-69
2023/09/20 03:28:04;;;;;;;8.68;2.63;;;;;;;10.79;100.00;100352.63;4952404;28;20062;-69
2023/09/20 03:30:33;;;;;;;7.55;2.20;;;;;;;10.78;100.00;100357.16;4952358;28;20047;-70
2023/09/20 03:33:01;;;;;;;7.65;2.60;;;;;;;10.82;100.00;100357.63;4951692;29;20097;-70
2023/09/20 03:35:30;;;;;;;8.18;2.75;;;;;;;10.77;100.00;100360.00;4952512;28;20062;-70
2023/09/20 03:37:57;;;;;;;7.18;3.00;;;;;;;10.81;100.00;100362.19;4951862;29;20118;-70
2023/09/20 03:40:24;;;;;;;7.35;2.58;;;;;;;10.81;100.00;100367.53;4952124;29;20480;-68
2023/09/20 03:42:54;;;;;;;7.13;2.60;;;;;;;10.80;100.00;100355.16;4953575;28;20047;-68
2023/09/20 03:45:20;;;;;;;6.60;2.80;;;;;;;10.69;100.00;100353.66;4953013;29;20055;-68
2023/09/20 03:47:56;;;;;;;8.65;3.63;;;;;;;10.68;100.00;100343.91;4952933;29;20140;-67
2023/09/20 03:50:23;;;;;;;8.88;2.63;;;;;;;10.58;100.00;100334.38;4952616;29;20468;-68
2023/09/20 03:52:52;;;;;;;7.85;2.72;;;;;;;10.58;100.00;100348.66;4953041;29;20054;-67
2023/09/20 03:55:23;;;;;;;8.73;2.58;;;;;;;10.54;100.00;100341.09;4953516;28;20071;-67
2023/09/20 03:57:50;;;;;;;8.50;2.65;;;;;;;10.52;100.00;100343.94;4952732;29;20054;-67
2023/09/20 04:00:19;;;;;;;11.90;2.45;;;;;;;10.47;100.00;100349.78;4953577;29;20059;-68
2023/09/20 04:02:46;;;;;;;10.40;2.45;;;;;;;10.42;100.00;100337.88;4953745;29;20047;-67
2023/09/20 04:05:16;;;;;;;7.07;2.45;;;;;;;10.37;100.00;100335.69;4952520;29;20051;-69
2023/09/20 04:08:00;;;;;;;7.00;2.65;;;;;;;10.44;100.00;100342.09;4953820;28;20047;-67
2023/09/20 04:10:27;;;;;;;11.15;2.60;;;;;;;10.44;100.00;100339.41;4953322;29;20058;-67
2023/09/20 04:12:54;;;;;;;7.30;2.55;;;;;;;10.34;100.00;100333.38;4952667;28;20502;-69
2023/09/20 04:15:23;;;;;;;7.32;2.80;;;;;;;10.30;100.00;100329.34;4952770;28;20472;-67
2023/09/20 04:17:51;;;;;;;10.77;3.03;;;;;;;10.32;100.00;100330.00;4936177;29;20066;-67
2023/09/20 04:20:21;;;;;;;11.55;2.85;;;;;;;10.31;100.00;100328.34;4935078;29;20062;-68
2023/09/20 04:22:50;;;;;;;8.95;2.85;;;;;;;10.25;100.00;100332.53;4953360;29;20053;-68
2023/09/20 04:25:17;;;;;;;12.18;2.53;;;;;;;10.16;100.00;100320.13;4952364;28;20047;-68
2023/09/20 04:27:46;;;;;;;5.60;2.30;;;;;;;10.15;100.00;100325.66;4952728;28;20077;-68
2023/09/20 04:30:14;;;;;;;11.07;3.00;;;;;;;10.16;100.00;100335.38;4953160;29;20051;-68
2023/09/20 04:32:41;;;;;;;9.85;2.55;;;;;;;10.20;100.00;100326.84;4936289;29;20098;-68
2023/09/20 04:35:09;;;;;;;11.25;2.10;;;;;;;10.11;100.00;100319.78;4953587;29;20476;-67
2023/09/20 04:37:35;;;;;;;9.88;2.65;;;;;;;10.13;100.00;100320.47;4953604;28;20140;-67
2023/09/20 04:40:03;;;;;;;12.27;2.80;;;;;;;10.17;100.00;100327.19;4952875;28;20047;-67
2023/09/20 04:42:33;;;;;;;9.65;3.30;;;;;;;10.18;100.00;100333.38;4952879;28;20369;-68
2023/09/20 04:45:00;;;;;;;7.95;2.60;;;;;;;10.18;100.00;100334.19;4951876;29;20054;-68
2023/09/20 04:47:28;;;;;;;8.77;2.55;;;;;;;10.19;100.00;100333.19;4951560;29;20110;-68
2023/09/20 04:49:55;;;;;;;5.72;2.35;;;;;;;10.12;100.00;100334.03;4953278;29;20130;-69
2023/09/20 04:52:23;;;;;;;6.20;2.70;;;;;;;10.14;100.00;100338.22;4952414;28;20453;-68
2023/09/20 04:54:51;;;;;;;9.55;2.53;;;;;;;10.13;100.00;100333.88;4952659;29;20150;-68
2023/09/20 04:57:19;;;;;;;7.28;2.58;;;;;;;10.18;100.00;100339.56;4953069;29;20062;-67
2023/09/20 04:59:46;;;;;;;6.20;2.40;;;;;;;10.14;100.00;100337.41;4952564;28;20491;-67
2023/09/20 05:02:14;;;;;;;11.40;2.65;;;;;;;10.20;100.00;100340.25;4956779;29;20582;-67
2023/09/20 05:04:42;;;;;;;9.40;2.35;;;;;;;10.19;100.00;100340.41;4939117;29;20063;-67
2023/09/20 05:07:09;;;;;;;10.02;2.63;;;;;;;10.20;100.00;100339.38;4955586;29;20106;-67
2023/09/20 05:09:37;;;;;;;6.55;2.38;;;;;;;10.16;100.00;100330.00;4956391;28;20387;-67
2023/09/20 05:12:04;;;;;;;27.65;3.20;;;;;;;10.13;100.00;100335.69;4956660;29;20043;-68
2023/09/20 05:14:33;;;;;;;11.23;2.70;;;;;;;10.16;100.00;100324.66;4956415;29;20043;-67
2023/09/20 05:17:00;;;;;;;12.20;2.60;;;;;;;10.23;100.00;100336.38;4956906;29;20047;-67
2023/09/20 05:19:28;;;;;;;13.75;2.45;;;;;;;10.16;100.00;100335.38;4939417;28;20058;-67
2023/09/20 05:21:54;;;;;;;8.00;3.00;;;;;;;10.13;100.00;100335.69;4937279;29;20559;-68
2023/09/20 05:24:23;;;;;;;8.13;2.30;;;;;;;10.11;100.00;100322.47;4934340;28;20052;-68
2023/09/20 05:26:50;;;;;;;5.50;2.33;;;;;;;10.19;100.00;100327.00;4934831;29;20364;-68
2023/09/20 05:29:18;;;;;;;12.63;2.50;;;;;;;10.18;100.00;100322.66;4932432;29;20055;-67
2023/09/20 05:31:44;;;;;;;10.07;2.90;;;;;;;10.13;100.00;100322.28;4947045;28;20055;-67
2023/09/20 05:34:11;;;;;;;7.68;2.05;;;;;;;10.14;100.00;100321.31;4936479;28;20123;-67
2023/09/20 05:36:39;;;;;;;12.70;2.65;;;;;;;10.24;100.00;100328.19;4936134;28;20047;-68
2023/09/20 05:39:06;;;;;;;16.58;2.88;;;;;;;10.27;100.00;100333.22;4937091;29;20055;-67
2023/09/20 05:41:34;;;;;;;8.10;2.97;;;;;;;10.29;100.00;100335.72;4936759;28;20047;-67
2023/09/20 05:44:00;;;;;;;6.82;2.53;;;;;;;10.23;100.00;100331.00;4935961;28;20043;-68
2023/09/20 05:46:27;;;;;;;10.70;2.53;;;;;;;10.24;100.00;100336.22;4935621;29;20058;-68
2023/09/20 05:48:54;;;;;;;9.55;2.50;;;;;;;10.28;100.00;100336.72;4935770;29;20051;-67
2023/09/20 05:51:22;;;;;;;9.43;2.53;;;;;;;10.32;100.00;100335.38;4935884;28;20067;-68
2023/09/20 05:53:49;;;;;;;6.45;2.33;;;;;;;10.36;100.00;100346.59;4937273;28;20047;-67
2023/09/20 05:56:19;;;;;;;7.10;2.45;;;;;;;10.35;100.00;100334.22;4936645;29;20051;-67
2023/09/20 05:58:46;;;;;;;6.38;2.58;;;;;;;10.31;100.00;100333.72;4936247;29;20047;-67
2023/09/20 06:01:17;;;;;;;12.77;2.70;;;;;;;10.40;100.00;100338.03;4935940;28;20082;-67
2023/09/20 06:03:46;;;;;;;13.75;3.58;;;;;;;10.51;100.00;100350.31;4936300;29;20044;-67
2023/09/20 06:06:13;;;;;;;8.90;2.45;;;;;;;10.60;100.00;100354.66;4935529;29;20071;-67
2023/09/20 06:08:42;;;;;;;11.38;3.00;;;;;;;10.68;100.00;100356.50;4946637;29;20053;-68
2023/09/20 06:11:10;;;;;;;11.90;2.47;;;;;;;10.75;100.00;100365.53;4956122;28;20472;-69
2023/09/20 06:13:38;;;;;;;8.45;2.40;;;;;;;10.77;100.00;100354.66;4955212;28;20051;-68
2023/09/20 06:16:09;;;;;;;6.90;2.38;;;;;;;10.80;100.00;100359.69;4955824;29;20102;-67
2023/09/20 06:18:36;;;;;;;6.95;2.53;;;;;;;10.94;100.00;100361.66;4955654;28;20126;-68
2023/09/20 06:21:08;;;;;;;11.38;2.75;;;;;;;11.10;100.00;100382.22;4955591;29;20047;-68
2023/09/20 06:23:35;;;;;;;9.27;2.30;;;;;;;11.13;100.00;100385.41;4955687;29;20147;-67
2023/09/20 06:26:07;;;;;;;8.60;2.45;;;;;;;11.16;100.00;100386.91;4939293;29;20452;-68
2023/09/20 06:28:35;;;;;;;11.25;2.53;;;;;;;11.24;100.00;100384.22;4956850;29;20407;-68
2023/09/20 06:31:03;;;;;;;12.45;3.08;;;;;;;11.52;100.00;100391.81;4955748;28;20058;-68
2023/09/20 06:33:30;;;;;;;6.80;2.10;;;;;;;11.74;100.00;100399.16;4956251;28;20046;-67
2023/09/20 06:35:59;;;;;;;6.70;2.15;;;;;;;11.76;100.00;100420.47;4955192;28;20054;-67
2023/09/20 06:38:25;;;;;;;12.30;2.95;;;;;;;11.85;100.00;100406.81;4955087;28;20051;-68
2023/09/20 06:40:53;;;;;;;12.45;2.63;;;;;;;11.96;100.00;100410.13;4955170;28;20069;-68
2023/09/20 06:43:20;;;;;;;5.47;2.17;;;;;;;12.07;100.00;100418.63;4954982;28;20043;-67
2023/09/20 06:45:52;;;;;;;8.88;2.75;;;;;;;12.19;100.00;100415.53;4955653;28;20047;-68
2023/09/20 06:48:22;;;;;;;9.45;2.65;;;;;;;12.37;100.00;100419.59;4954793;28;20136;-68
2023/09/20 06:50:54;;;;;;;8.75;2.50;;;;;;;12.49;100.00;100432.66;4954410;28;20051;-67
2023/09/20 06:53:23;;;;;;;5.10;2.08;;;;;;;12.89;100.00;100434.16;4955123;29;20051;-67
2023/09/20 06:55:50;;;;;;;13.02;2.88;;;;;;;13.25;100.00;100433.47;4955005;29;20047;-67
2023/09/20 06:58:18;;;;;;;7.78;2.55;;;;;;;13.61;100.00;100447.06;4954412;28;20416;-68
2023/09/20 07:00:48;;;;;;;6.10;1.92;;;;;;;14.01;100.00;100444.88;4953444;28;20126;-69
2023/09/20 07:03:15;;;;;;;12.18;2.28;;;;;;;14.28;100.00;100446.84;4954698;29;20471;-67
2023/09/20 07:05:42;;;;;;;8.68;2.42;;;;;;;14.75;100.00;100455.44;4954422;28;20122;-68
2023/09/20 07:08:10;;;;;;;6.80;2.15;;;;;;;14.85;100.00;100457.81;4954077;28;20043;-68
2023/09/20 07:10:41;;;;;;;9.90;2.00;;;;;;;14.86;100.00;100449.50;4937552;29;20066;-68
2023/09/20 07:13:10;;;;;;;10.18;2.67;;;;;;;14.96;100.00;100457.28;4955504;29;20054;-67
2023/09/20 07:15:39;;;;;;;9.18;2.50;;;;;;;14.97;100.00;100451.66;4955315;29;20051;-67
2023/09/20 07:18:12;;;;;;;9.60;2.25;;;;;;;15.20;100.00;100459.53;4955523;29;20217;-68
2023/09/20 07:20:41;;;;;;;5.30;1.95;;;;;;;15.40;100.00;100464.25;4955596;29;20098;-68
2023/09/20 07:23:08;;;;;;;13.77;2.30;;;;;;;15.35;100.00;100458.59;4958161;28;20047;-68
2023/09/20 07:25:37;;;;;;;6.88;2.47;;;;;;;15.65;100.00;100462.78;4957420;28;20055;-67
2023/09/20 07:28:06;;;;;;;17.05;2.97;;;;;;;15.69;100.00;100466.72;4956882;28;20058;-68
2023/09/20 07:30:40;;;;;;;15.07;2.80;;;;;;;16.03;100.00;100454.19;4940372;29;20039;-67
2023/09/20 07:33:11;;;;;;;8.73;2.22;;;;;;;16.48;100.00;100469.94;4956786;29;20070;-67
2023/09/20 07:35:52;;;;;;;14.52;3.08;;;;;;;17.00;100.00;100457.50;4956203;28;20122;-67
2023/09/20 07:38:29;;;;;;;6.97;2.15;;;;;;;17.02;100.00;100458.13;4956218;28;20062;-68
2023/09/20 07:41:13;;;;;;;7.25;2.22;;;;;;;17.09;100.00;100454.38;4955878;28;20130;-66
2023/09/20 07:43:44;;;;;;;7.18;2.22;;;;;;;17.17;100.00;100452.50;4956717;28;20067;-67
2023/09/20 07:46:13;;;;;;;7.45;2.03;;;;;;;17.44;100.00;100456.00;4956039;28;20146;-68
2023/09/20 07:48:47;;;;;;;10.30;2.80;;;;;;;17.57;100.00;100462.25;4955790;29;20495;-68
2023/09/20 07:51:20;;;;;;;10.32;2.08;;;;;;;18.04;100.00;100462.09;4955678;28;20078;-67
2023/09/20 07:53:49;;;;;;;9.85;2.20;;;;;;;18.33;98.85;100468.84;4955618;29;20049;-67
2023/09/20 07:56:17;;;;;;;5.47;1.52;;;;;;;18.46;97.27;100465.22;4955699;28;20131;-68
2023/09/20 07:58:44;;;;;;;5.70;2.00;;;;;;;18.70;92.80;100464.44;4955382;29;20047;-71
2023/09/20 08:01:21;;;;;;;7.78;2.20;;;;;;;18.37;94.58;100471.97;4955265;29;20083;-67
2023/09/20 08:03:51;;;;;;;10.23;2.08;;;;;;;18.76;92.63;100479.88;4955476;29;20051;-68
2023/09/20 08:06:20;;;;;;;6.65;1.90;;;;;;;18.82;89.41;100477.31;4952852;29;20051;-68
2023/09/20 08:08:48;;;;;;;13.98;2.40;;;;;;;18.34;95.80;100475.94;4952696;28;20074;-71
2023/09/20 08:11:15;;;;;;;12.85;2.30;;;;;;;18.44;98.48;100476.28;4930752;28;20159;-70
2023/09/20 08:13:45;;;;;;;10.50;2.67;;;;;;;18.59;95.60;100486.88;4931495;29;20054;-69
2023/09/20 08:16:12;;;;;;;8.32;2.63;;;;;;;18.76;95.52;100481.75;4933694;28;20051;-71
2023/09/20 08:21:25;;;;;;;9.90;2.22;;;;;;;18.86;93.49;100478.53;4951379;29;20050;-70
2023/09/20 08:59:56;;;;;;;7.43;1.95;;;;;;;20.33;75.47;100467.78;4954630;29;20070;-68
2023/09/20 09:02:26;;;;;;;10.10;2.45;;;;;;;20.53;74.88;100475.72;4952405;28;20062;-67
2023/09/20 09:04:54;;;;;;;10.63;1.90;;;;;;;21.23;70.47;100467.69;4952304;28;20133;-68
2023/09/20 09:07:24;;;;;;;11.50;2.08;;;;;;;21.15;68.68;100457.13;4952324;29;20405;-69
2023/09/20 09:09:52;;;;;;;13.48;2.40;;;;;;;21.93;65.23;100463.22;4952370;29;20055;-68
2023/09/20 09:12:18;;;;;;;7.03;2.00;;;;;;;21.58;64.94;100456.72;4952170;29;20043;-68
2023/09/20 09:14:48;;;;;;;6.85;2.13;;;;;;;22.16;61.95;100462.31;4952713;29;20047;-68
2023/09/20 09:17:16;;;;;;;8.50;2.17;;;;;;;21.70;63.45;100459.47;4952474;28;20134;-69
2023/09/20 09:19:43;;;;;;;7.32;1.92;;;;;;;21.38;64.38;100457.09;4953321;29;20043;-68
2023/09/20 09:22:10;;;;;;;11.55;2.25;;;;;;;20.45;68.16;100449.59;4936213;29;20094;-67
2023/09/20 09:24:48;;;;;;;10.82;2.42;;;;;;;19.56;73.82;100453.88;4952082;29;20059;-67
2023/09/20 09:27:18;;;;;;;10.45;2.38;;;;;;;18.90;86.96;100458.03;4951031;29;20055;-68
2023/09/20 09:29:46;;;;;;;12.63;2.17;;;;;;;18.61;93.49;100452.16;4951747;29;20114;-68
2023/09/20 09:32:13;;;;;;;7.78;2.20;;;;;;;18.28;100.00;100457.81;4950193;29;20138;-69
2023/09/20 09:34:43;;;;;;;10.35;2.72;;;;;;;18.42;100.00;100456.69;4951660;29;20102;-68
2023/09/20 09:37:11;;;;;;;7.00;1.98;;;;;;;18.48;100.00;100444.97;4951706;29;20047;-69
2023/09/20 09:39:39;;;;;;;10.68;2.47;;;;;;;18.77;99.18;100456.25;4951093;29;20054;-67
2023/09/20 09:42:07;;;;;;;12.13;2.65;;;;;;;18.97;96.16;100458.84;4951317;28;20047;-67
2023/09/20 09:44:51;;;;;;;9.63;2.15;;;;;;;18.81;98.56;100456.63;4951377;29;20066;-67
2023/09/20 09:47:19;;;;;;;7.15;1.83;;;;;;;19.14;94.26;100450.91;4952933;28;20047;-68
2023/09/20 09:49:48;;;;;;;17.17;2.17;;;;;;;19.99;82.51;100445.63;4953675;29;20500;-69
2023/09/20 09:52:26;;;;;;;18.70;2.30;;;;;;;20.58;78.06;100441.25;4954843;29;20423;-68
2023/09/20 09:54:53;;;;;;;9.82;2.70;;;;;;;20.95;71.44;100442.97;4955574;29;20043;-67
2023/09/20 09:57:21;;;;;;;6.57;1.80;;;;;;;21.54;67.66;100443.81;4954438;29;20484;-67
2023/09/20 09:59:49;;;;;;;11.40;2.55;;;;;;;21.75;65.36;100447.81;4955411;29;20047;-68
2023/09/20 10:02:27;;;;;;;5.22;1.77;;;;;;;21.74;65.04;100449.72;4953848;29;20047;-67
2023/09/20 10:05:06;;;;;;;7.75;2.00;;;;;;;22.29;62.47;100440.13;4954556;28;20047;-68
2023/09/20 10:07:38;;;;;;;5.70;1.83;;;;;;;22.17;61.04;100440.19;4954198;29;20110;-68
2023/09/20 10:10:13;;;;;;;5.35;1.98;;;;;;;22.85;59.43;100435.69;4954627;29;20047;-68
2023/09/20 10:12:44;;;;;;;12.73;2.13;;;;;;;22.85;59.79;100443.91;4955294;29;20407;-68
2023/09/20 10:15:14;;;;;;;7.13;1.88;;;;;;;23.90;56.65;100444.06;4938333;29;20131;-69
2023/09/20 10:17:52;;;;;;;4.80;2.27;;;;;;;23.55;55.16;100442.50;4935647;29;21717;-68
2023/09/20 10:20:19;;;;;;;9.60;2.05;;;;;;;22.58;57.07;100434.69;4936819;28;20079;-67
2023/09/20 10:22:51;;;;;;;5.35;1.60;;;;;;;21.27;61.83;100440.75;4936589;29;20047;-68
2023/09/20 10:25:35;;;;;;;10.73;2.00;;;;;;;20.22;70.55;100438.63;4936209;28;20051;-68
2023/09/20 10:28:04;;;;;;;7.40;2.33;;;;;;;19.57;80.92;100431.84;4936084;28;20047;-69
2023/09/20 10:30:34;;;;;;;6.45;2.25;;;;;;;20.34;76.36;100428.59;4934824;28;20500;-68
2023/09/20 10:33:04;;;;;;;6.55;2.15;;;;;;;20.84;74.54;100423.63;4936167;29;20051;-68
2023/09/20 10:35:32;;;;;;;10.90;2.42;;;;;;;21.50;69.41;100418.91;4936329;28;20074;-67
2023/09/20 10:38:05;;;;;;;8.63;2.30;;;;;;;22.26;64.32;100416.88;4936329;29;20063;-68
2023/09/20 10:40:44;;;;;;;6.45;1.95;;;;;;;23.33;57.75;100415.13;4935977;28;20051;-68
2023/09/20 10:43:14;;;;;;;8.32;2.10;;;;;;;22.86;58.99;100412.72;4935856;28;20056;-70
2023/09/20 10:45:41;;;;;;;9.57;2.33;;;;;;;22.98;58.96;100418.09;4935690;29;20051;-69
2023/09/20 10:48:12;;;;;;;11.88;2.20;;;;;;;23.39;57.98;100405.03;4936510;29;20464;-68
2023/09/20 10:50:49;;;;;;;8.23;2.00;;;;;;;23.79;55.07;100401.22;4936670;28;20052;-68
2023/09/20 10:53:18;;;;;;;10.38;2.42;;;;;;;24.00;53.94;100385.81;4935398;29;20107;-68
2023/09/20 10:55:46;;;;;;;7.30;2.17;;;;;;;23.77;54.42;100385.00;4935854;29;20055;-68
2023/09/20 10:58:15;;;;;;;5.35;1.98;;;;;;;23.49;55.04;100392.31;4935204;28;20488;-68
2023/09/20 11:00:41;;;;;;;9.48;1.75;;;;;;;22.73;56.83;100389.28;4935498;28;20515;-69
2023/09/20 11:03:08;;;;;;;13.52;2.53;;;;;;;22.83;56.89;100390.53;4936088;29;20448;-68
2023/09/20 11:05:38;;;;;;;12.52;2.28;;;;;;;22.90;56.43;100383.78;4935695;28;20055;-68
2023/09/20 11:08:10;;;;;;;7.35;2.22;;;;;;;22.97;56.32;100395.38;4935177;28;20051;-68
2023/09/20 11:10:45;;;;;;;7.22;2.92;;;;;;;23.16;56.16;100384.22;4947310;29;20398;-69
2023/09/20 11:13:14;;;;;;;8.55;2.10;;;;;;;22.43;57.89;100380.53;4954281;28;20050;-68
2023/09/20 11:15:43;;;;;;;4.65;1.98;;;;;;;21.54;61.50;100370.13;4954265;29;20054;-68
2023/09/20 11:18:16;;;;;;;7.28;2.17;;;;;;;21.14;65.08;100381.81;4937534;29;20479;-68
2023/09/20 11:20:43;;;;;;;9.18;3.13;;;;;;;21.20;66.40;100385.47;4954055;28;20487;-69
2023/09/20 11:23:10;;;;;;;15.15;2.53;;;;;;;20.98;67.00;100386.06;4955026;29;20551;-69
2023/09/20 11:25:37;;;;;;;9.95;2.40;;;;;;;20.51;69.91;100382.47;4954223;29;20130;-68
2023/09/20 11:28:07;;;;;;;13.52;2.60;;;;;;;20.43;71.36;100381.75;4953813;28;20047;-69
2023/09/20 11:30:35;;;;;;;10.98;2.38;;;;;;;20.16;73.85;100386.72;4953434;29;20469;-67
2023/09/20 11:33:02;;;;;;;7.05;2.22;;;;;;;19.47;81.87;100377.97;4953653;28;20058;-68
2023/09/20 11:35:38;;;;;;;6.60;2.05;;;;;;;19.43;86.00;100381.38;4953498;29;20396;-68
2023/09/20 11:38:07;;;;;;;9.15;1.98;;;;;;;19.29;92.12;100383.41;4953532;28;20448;-69
2023/09/20 11:40:41;;;;;;;10.60;1.90;;;;;;;19.68;88.08;100384.84;4953782;28;20138;-67
2023/09/20 11:43:12;;;;;;;10.68;2.00;;;;;;;20.09;85.20;100382.44;4954349;29;20047;-67
2023/09/20 11:45:42;;;;;;;15.30;2.50;;;;;;;20.55;79.98;100375.47;4954393;29;20043;-67
2023/09/20 11:48:27;;;;;;;12.38;2.33;;;;;;;21.06;75.20;100372.06;4954146;28;20279;-68
2023/09/20 11:50:54;;;;;;;9.02;2.80;;;;;;;20.72;76.26;100376.44;4953601;28;20054;-68
2023/09/20 11:53:21;;;;;;;9.23;2.78;;;;;;;20.99;74.14;100368.63;4954186;28;20050;-68
2023/09/20 11:55:48;;;;;;;12.85;2.20;;;;;;;21.51;70.90;100371.41;4954261;28;20559;-68
2023/09/20 11:58:21;;;;;;;5.05;2.40;;;;;;;21.77;67.77;100367.31;4953659;28;20423;-67
2023/09/20 12:00:49;;;;;;;9.77;2.22;;;;;;;22.06;66.62;100367.34;4953362;28;20055;-68
2023/09/20 12:03:15;;;;;;;7.65;1.67;;;;;;;22.40;64.48;100368.22;4953886;28;20062;-69
2023/09/20 12:05:42;;;;;;;8.43;2.05;;;;;;;23.07;60.66;100367.34;4952627;28;20427;-68
2023/09/20 12:08:09;;;;;;;9.07;1.83;;;;;;;22.62;60.51;100362.03;4954194;28;20047;-67